Time;durP1;ratioP1;P1;durP2;ratioP2;P2;SDS_P1;SDS_P2;PMS_P1;PMS_P2;Temp;Humidity;BMP_temperature;BMP_pressure;BME280_temperature;BME280_humidity;BME280_pressure;Samples;Min_cycle;Max_cycle;Signal;HPM_P1;HPM_P2
2021/08/10 00:00:17;;;;;;;5.20;4.70;;;16.40;99.90;;;;;;5113055;28;20544;-82
2021/08/10 00:02:44;;;;;;;5.10;4.50;;;16.40;99.90;;;;;;5112652;28;20445;-82
2021/08/10 00:05:10;;;;;;;4.67;4.30;;;16.40;99.90;;;;;;5113147;28;20557;-82
2021/08/10 00:07:37;;;;;;;4.80;4.00;;;16.40;99.90;;;;;;5113177;28;21082;-81
2021/08/10 00:10:04;;;;;;;4.37;3.77;;;16.40;99.90;;;;;;5113444;28;20521;-81
2021/08/10 00:12:32;;;;;;;5.47;4.03;;;16.30;99.90;;;;;;5112905;28;20561;-81
2021/08/10 00:14:59;;;;;;;4.13;3.73;;;16.30;99.90;;;;;;5113366;28;20445;-81
2021/08/10 00:17:27;;;;;;;6.70;4.00;;;16.30;99.90;;;;;;5112579;28;20470;-82
2021/08/10 00:19:53;;;;;;;4.50;3.70;;;16.30;99.90;;;;;;5113579;28;20449;-82
2021/08/10 00:22:20;;;;;;;4.37;4.07;;;16.20;99.90;;;;;;5112684;28;20536;-82
2021/08/10 00:24:46;;;;;;;4.67;4.20;;;16.20;99.90;;;;;;5112856;28;20500;-83
2021/08/10 00:27:14;;;;;;;4.43;4.03;;;16.20;99.90;;;;;;5111402;28;20537;-83
2021/08/10 00:29:41;;;;;;;4.77;3.80;;;16.20;99.90;;;;;;5112819;28;20449;-82
2021/08/10 00:32:08;;;;;;;4.53;3.73;;;16.20;99.90;;;;;;5112782;28;20550;-82
2021/08/10 00:34:36;;;;;;;5.17;4.23;;;16.20;99.90;;;;;;5112731;28;20999;-82
2021/08/10 00:37:04;;;;;;;4.37;4.10;;;16.20;99.90;;;;;;5113022;28;20819;-81
2021/08/10 00:39:31;;;;;;;6.97;4.47;;;16.20;99.90;;;;;;5113351;28;20807;-80
2021/08/10 00:41:57;;;;;;;4.67;4.20;;;16.10;99.90;;;;;;5115881;28;20533;-80
2021/08/10 00:44:24;;;;;;;8.40;4.30;;;16.10;99.90;;;;;;5116200;28;20477;-81
2021/08/10 00:46:50;;;;;;;5.07;4.10;;;16.10;99.90;;;;;;5115898;28;20529;-80
2021/08/10 00:49:17;;;;;;;4.77;4.07;;;16.10;99.90;;;;;;5115899;28;20445;-80
2021/08/10 00:51:45;;;;;;;5.63;3.90;;;16.10;99.90;;;;;;5116171;28;20472;-81
2021/08/10 00:54:12;;;;;;;3.87;3.43;;;16.10;99.90;;;;;;5116268;28;20516;-81
2021/08/10 00:56:39;;;;;;;6.90;4.23;;;16.10;99.90;;;;;;5115958;28;20441;-81
2021/08/10 00:59:06;;;;;;;5.10;4.07;;;16.10;99.90;;;;;;5116133;28;20615;-81
2021/08/10 01:01:32;;;;;;;4.60;4.20;;;16.10;99.90;;;;;;5115963;28;20533;-80
2021/08/10 01:03:59;;;;;;;6.07;4.10;;;16.10;99.90;;;;;;5116115;28;20533;-80
2021/08/10 01:06:33;;;;;;;7.33;4.33;;;16.10;99.90;;;;;;5115768;28;20441;-80
2021/08/10 01:09:07;;;;;;;4.90;4.00;;;16.10;99.90;;;;;;5115844;28;20497;-79
2021/08/10 01:11:39;;;;;;;4.33;3.93;;;16.00;99.90;;;;;;5116473;28;20529;-80
2021/08/10 01:14:13;;;;;;;5.63;4.40;;;16.10;99.90;;;;;;5116390;28;20537;-80
2021/08/10 01:16:44;;;;;;;3.90;3.60;;;16.00;99.90;;;;;;5115653;28;20537;-80
2021/08/10 01:19:35;;;;;;;6.77;4.47;;;16.00;99.90;;;;;;5115657;28;20472;-80
2021/08/10 01:22:04;;;;;;;4.73;4.10;;;16.00;99.90;;;;;;5115470;28;20545;-81
2021/08/10 01:24:39;;;;;;;4.10;3.80;;;16.00;99.90;;;;;;5115697;28;20541;-80
2021/08/10 01:27:33;;;;;;;6.77;4.10;;;16.00;99.90;;;;;;5115583;28;20448;-81
2021/08/10 01:30:04;;;;;;;4.10;3.80;;;16.00;99.90;;;;;;5115674;28;20544;-81
2021/08/10 01:32:34;;;;;;;4.37;4.03;;;16.00;99.90;;;;;;5114700;28;20636;-81
2021/08/10 01:35:01;;;;;;;4.93;4.03;;;16.00;99.90;;;;;;5115531;28;20537;-81
2021/08/10 01:37:30;;;;;;;4.53;3.97;;;16.00;99.90;;;;;;5115508;28;21011;-81
2021/08/10 01:40:00;;;;;;;9.43;4.67;;;15.90;99.90;;;;;;5115245;28;20529;-81
2021/08/10 01:42:27;;;;;;;4.40;3.97;;;15.90;99.90;;;;;;5115250;28;20920;-81
2021/08/10 01:44:55;;;;;;;4.90;4.50;;;15.90;99.90;;;;;;5115200;28;20449;-81
2021/08/10 01:47:23;;;;;;;4.30;3.90;;;16.00;99.90;;;;;;5098294;28;20494;-83
2021/08/10 01:49:52;;;;;;;4.50;4.20;;;16.00;99.90;;;;;;5115183;28;20469;-83
2021/08/10 01:52:21;;;;;;;4.77;4.37;;;15.90;99.90;;;;;;5114349;28;20805;-81
2021/08/10 01:54:49;;;;;;;4.53;3.80;;;15.90;99.90;;;;;;5115399;28;20533;-81
2021/08/10 01:57:17;;;;;;;6.00;4.60;;;15.90;99.90;;;;;;5115144;28;20450;-83
2021/08/10 01:59:45;;;;;;;4.87;4.40;;;15.90;99.90;;;;;;5114834;28;20445;-80
2021/08/10 02:02:12;;;;;;;4.33;4.03;;;15.90;99.90;;;;;;5114767;28;20558;-82
2021/08/10 02:04:40;;;;;;;4.93;4.40;;;15.90;99.90;;;;;;5114829;28;20536;-83
2021/08/10 02:07:08;;;;;;;3.73;3.53;;;15.80;99.90;;;;;;5114453;28;20536;-83
2021/08/10 02:09:35;;;;;;;6.07;4.30;;;15.80;99.90;;;;;;5114614;28;20556;-81
2021/08/10 02:12:03;;;;;;;4.70;4.30;;;15.80;99.90;;;;;;5114327;28;20473;-81
2021/08/10 02:14:30;;;;;;;4.50;4.17;;;15.90;99.90;;;;;;5114949;28;20528;-80
2021/08/10 02:17:01;;;;;;;4.77;3.70;;;15.90;99.90;;;;;;5114542;28;20442;-81
2021/08/10 02:19:28;;;;;;;3.80;3.50;;;15.90;99.90;;;;;;5114964;28;20496;-80
2021/08/10 02:22:02;;;;;;;4.00;3.40;;;16.00;99.90;;;;;;5114417;28;20892;-81
2021/08/10 02:24:35;;;;;;;4.37;4.00;;;15.90;99.90;;;;;;5114649;28;20446;-81
2021/08/10 02:27:04;;;;;;;4.53;3.80;;;15.80;99.90;;;;;;5114899;28;20477;-81
2021/08/10 02:29:35;;;;;;;3.77;3.47;;;15.80;99.90;;;;;;5114357;28;20537;-81
2021/08/10 02:32:04;;;;;;;3.73;3.37;;;15.80;99.90;;;;;;5112711;28;20492;-81
2021/08/10 02:34:31;;;;;;;4.43;4.03;;;15.80;99.90;;;;;;5111804;28;20545;-81
2021/08/10 02:37:00;;;;;;;6.33;4.30;;;15.80;99.90;;;;;;5113133;28;20808;-81
2021/08/10 02:39:29;;;;;;;4.40;4.10;;;15.80;99.90;;;;;;5114403;28;20553;-81
2021/08/10 02:41:57;;;;;;;5.07;4.63;;;15.80;99.90;;;;;;5114286;28;20877;-83
2021/08/10 02:44:26;;;;;;;4.60;4.30;;;15.90;99.90;;;;;;5114585;28;21028;-83
2021/08/10 02:46:53;;;;;;;4.33;3.90;;;15.90;99.90;;;;;;5114487;28;20528;-83
2021/08/10 02:49:19;;;;;;;4.10;3.73;;;15.90;99.90;;;;;;5114014;28;20865;-83
2021/08/10 02:51:46;;;;;;;4.40;4.00;;;16.00;99.90;;;;;;5113896;28;20530;-81
2021/08/10 02:54:13;;;;;;;4.90;3.73;;;16.00;99.90;;;;;;5113748;28;20928;-81
2021/08/10 02:56:47;;;;;;;4.03;3.63;;;16.10;99.90;;;;;;5114095;28;20470;-81
2021/08/10 02:59:19;;;;;;;4.03;3.63;;;16.10;99.90;;;;;;5114124;28;20525;-80
2021/08/10 03:01:53;;;;;;;4.77;4.37;;;16.10;99.90;;;;;;5113794;28;20515;-80
2021/08/10 03:04:23;;;;;;;5.20;3.70;;;16.10;99.90;;;;;;5112862;28;20536;-80
2021/08/10 03:06:50;;;;;;;5.80;4.40;;;16.10;99.90;;;;;;5114209;28;20537;-81
2021/08/10 03:09:17;;;;;;;3.80;3.50;;;16.00;99.90;;;;;;5114018;28;21031;-81
2021/08/10 03:11:46;;;;;;;4.10;3.90;;;15.90;99.90;;;;;;5113813;28;20480;-82
2021/08/10 03:14:14;;;;;;;4.57;4.07;;;15.90;99.90;;;;;;5113876;28;20569;-81
2021/08/10 03:16:42;;;;;;;6.70;4.90;;;15.90;99.90;;;;;;5113659;28;20540;-81
2021/08/10 03:19:11;;;;;;;5.07;3.87;;;15.80;99.90;;;;;;5113949;28;20473;-81
2021/08/10 03:21:40;;;;;;;4.47;4.07;;;15.80;99.90;;;;;;5113401;28;20481;-82
2021/08/10 03:24:09;;;;;;;6.00;4.30;;;15.70;99.90;;;;;;5113949;28;20885;-82
2021/08/10 03:26:36;;;;;;;5.80;4.57;;;15.70;99.90;;;;;;5113421;28;20533;-81
2021/08/10 03:29:04;;;;;;;4.97;4.43;;;15.70;99.90;;;;;;5113781;28;20540;-81
2021/08/10 03:31:31;;;;;;;4.93;3.97;;;15.70;99.90;;;;;;5113767;28;20469;-81
2021/08/10 03:33:59;;;;;;;4.40;4.07;;;15.60;99.90;;;;;;5113552;28;20564;-81
2021/08/10 03:36:26;;;;;;;4.80;3.80;;;15.60;99.90;;;;;;5113253;28;20540;-81
2021/08/10 03:38:55;;;;;;;4.23;3.93;;;15.60;99.90;;;;;;5113517;28;20885;-81
2021/08/10 03:41:23;;;;;;;4.50;4.20;;;15.60;99.90;;;;;;5096934;28;20797;-81
2021/08/10 03:43:50;;;;;;;4.20;3.90;;;15.60;99.90;;;;;;5113208;28;20989;-81
2021/08/10 03:46:18;;;;;;;4.80;4.33;;;15.60;99.90;;;;;;5113008;28;20532;-81
2021/08/10 03:48:46;;;;;;;5.60;4.50;;;15.60;99.90;;;;;;5113894;28;20525;-81
2021/08/10 03:51:13;;;;;;;6.67;4.40;;;15.50;99.90;;;;;;5112857;28;20441;-81
2021/08/10 03:53:40;;;;;;;4.47;4.10;;;15.60;99.90;;;;;;5113003;28;20503;-80
2021/08/10 03:56:09;;;;;;;4.40;4.10;;;15.50;99.90;;;;;;5112930;28;20540;-81
2021/08/10 03:58:38;;;;;;;4.07;3.77;;;15.50;99.90;;;;;;5113615;28;20442;-80
2021/08/10 04:01:06;;;;;;;5.30;4.10;;;15.50;99.90;;;;;;5112958;28;20441;-79
2021/08/10 04:03:36;;;;;;;4.90;4.40;;;15.50;99.90;;;;;;5113054;28;20505;-80
2021/08/10 04:06:04;;;;;;;5.87;4.33;;;15.50;99.90;;;;;;5113104;28;20560;-81
2021/08/10 04:08:31;;;;;;;6.30;4.87;;;15.50;99.90;;;;;;5112951;28;21003;-81
2021/08/10 04:10:58;;;;;;;4.57;4.20;;;15.50;99.90;;;;;;5113023;28;20536;-82
2021/08/10 04:13:25;;;;;;;5.60;4.00;;;15.50;99.90;;;;;;5113420;28;20569;-83
2021/08/10 04:15:53;;;;;;;5.00;4.60;;;15.60;99.90;;;;;;5115500;28;20996;-82
2021/08/10 04:18:22;;;;;;;4.33;4.03;;;15.60;99.90;;;;;;5117478;28;20488;-82
2021/08/10 04:20:52;;;;;;;4.30;3.93;;;15.60;99.90;;;;;;5116647;28;20494;-82
2021/08/10 04:23:19;;;;;;;5.67;4.60;;;15.60;99.90;;;;;;5116715;28;21036;-83
2021/08/10 04:25:45;;;;;;;9.40;3.90;;;15.60;99.90;;;;;;5117207;28;20480;-81
2021/08/10 04:28:13;;;;;;;4.67;4.27;;;15.70;99.90;;;;;;5117254;28;20521;-81
2021/08/10 04:30:41;;;;;;;4.40;4.10;;;15.70;99.90;;;;;;5117243;28;20532;-80
2021/08/10 04:33:08;;;;;;;5.60;4.97;;;15.80;99.90;;;;;;5116627;28;20556;-81
2021/08/10 04:35:34;;;;;;;5.90;5.10;;;15.80;99.90;;;;;;5116642;28;20860;-81
2021/08/10 04:38:03;;;;;;;4.80;4.40;;;15.80;99.90;;;;;;5116321;28;20482;-81
2021/08/10 04:40:30;;;;;;;5.30;4.20;;;15.90;99.90;;;;;;5116699;28;20905;-82
2021/08/10 04:42:57;;;;;;;4.97;4.00;;;15.90;99.90;;;;;;5116249;28;20480;-81
2021/08/10 04:45:23;;;;;;;4.10;3.80;;;15.90;99.90;;;;;;5116319;28;20528;-80
2021/08/10 04:47:52;;;;;;;4.50;4.20;;;16.00;99.90;;;;;;5116050;28;20533;-80
2021/08/10 04:50:18;;;;;;;4.63;4.30;;;16.00;99.90;;;;;;5116479;28;20445;-80
2021/08/10 04:52:45;;;;;;;5.73;4.87;;;16.10;99.90;;;;;;5116053;28;20881;-80
2021/08/10 04:55:13;;;;;;;4.80;4.30;;;16.20;99.90;;;;;;5116352;28;20524;-81
2021/08/10 04:57:40;;;;;;;5.73;5.23;;;16.20;99.90;;;;;;5116211;28;20857;-79
2021/08/10 05:00:08;;;;;;;5.40;5.00;;;16.30;99.90;;;;;;5116393;28;20540;-80
2021/08/10 05:02:37;;;;;;;4.97;4.30;;;16.30;99.90;;;;;;5116369;28;20524;-83
2021/08/10 05:05:04;;;;;;;5.37;4.93;;;16.40;99.90;;;;;;5115922;28;20545;-81
2021/08/10 05:07:30;;;;;;;5.70;5.13;;;16.40;99.90;;;;;;5115914;28;20656;-82
2021/08/10 05:09:57;;;;;;;5.83;5.23;;;16.50;99.90;;;;;;5115633;28;21032;-81
2021/08/10 05:12:24;;;;;;;5.57;5.00;;;16.50;99.90;;;;;;5115752;28;20595;-83
2021/08/10 05:14:51;;;;;;;7.83;4.90;;;16.50;99.90;;;;;;5115715;28;20588;-80
2021/08/10 05:17:17;;;;;;;5.30;4.90;;;16.50;99.90;;;;;;5113756;28;20474;-81
2021/08/10 05:19:44;;;;;;;5.23;4.73;;;16.60;99.90;;;;;;5115716;28;20533;-81
2021/08/10 05:22:10;;;;;;;5.87;5.37;;;16.70;99.90;;;;;;5115907;28;20477;-81
2021/08/10 05:24:37;;;;;;;6.73;6.13;;;16.80;99.90;;;;;;5116215;28;20877;-81
2021/08/10 05:27:04;;;;;;;6.20;5.70;;;16.80;99.90;;;;;;5114353;28;20850;-81
2021/08/10 05:29:32;;;;;;;6.50;5.40;;;16.90;99.90;;;;;;5115878;28;20532;-81
2021/08/10 05:31:58;;;;;;;5.93;4.90;;;16.90;99.90;;;;;;5117487;27;20441;-80
2021/08/10 05:34:25;;;;;;;8.50;5.27;;;17.00;99.90;;;;;;5123057;27;20508;-81
2021/08/10 05:36:52;;;;;;;7.90;5.70;;;17.00;99.90;;;;;;5115593;28;20456;-81
2021/08/10 05:39:18;;;;;;;5.90;5.10;;;17.10;99.90;;;;;;5115296;28;20449;-83
2021/08/10 05:41:45;;;;;;;5.77;5.20;;;17.30;99.90;;;;;;5115488;28;20453;-81
2021/08/10 05:44:15;;;;;;;5.60;5.10;;;17.30;99.90;;;;;;5115653;28;21015;-81
2021/08/10 05:46:43;;;;;;;6.27;5.37;;;17.50;99.90;;;;;;5113779;28;20800;-82
2021/08/10 05:49:09;;;;;;;6.37;5.70;;;17.60;99.90;;;;;;5115119;28;20796;-82
2021/08/10 05:51:37;;;;;;;5.63;5.13;;;17.70;99.90;;;;;;5114799;28;20446;-80
2021/08/10 05:54:03;;;;;;;5.20;4.80;;;17.90;99.90;;;;;;5114909;28;20567;-80
2021/08/10 05:56:30;;;;;;;5.83;5.33;;;18.00;99.90;;;;;;5112510;28;20446;-80
2021/08/10 05:58:56;;;;;;;5.23;4.73;;;18.20;99.90;;;;;;5113694;28;20537;-80
2021/08/10 06:01:23;;;;;;;6.43;5.83;;;18.40;99.90;;;;;;5113831;28;20434;-81
2021/08/10 06:03:51;;;;;;;7.10;4.77;;;18.60;99.90;;;;;;5113047;28;20446;-80
2021/08/10 06:06:17;;;;;;;5.23;4.83;;;18.90;99.90;;;;;;5114441;28;20533;-80
2021/08/10 06:08:43;;;;;;;5.80;5.40;;;19.30;99.90;;;;;;5113770;28;20556;-80
2021/08/10 06:11:10;;;;;;;5.23;4.73;;;19.70;99.90;;;;;;5113381;28;20542;-81
2021/08/10 06:13:37;;;;;;;7.80;5.20;;;20.10;99.90;;;;;;5114181;28;20497;-80
2021/08/10 06:16:04;;;;;;;5.33;4.50;;;20.50;99.90;;;;;;5114771;28;20966;-80
2021/08/10 06:18:31;;;;;;;3.80;3.40;;;20.90;99.90;;;;;;5114698;28;20534;-80
2021/08/10 06:20:59;;;;;;;5.07;4.37;;;21.20;99.90;;;;;;5114834;28;20879;-81
2021/08/10 06:23:25;;;;;;;4.40;4.10;;;21.50;99.90;;;;;;5114840;28;20529;-81
2021/08/10 06:25:52;;;;;;;4.70;4.30;;;21.90;99.90;;;;;;5114252;28;20528;-81
2021/08/10 06:28:19;;;;;;;5.37;3.63;;;22.10;99.90;;;;;;5114150;28;20472;-81
2021/08/10 06:30:46;;;;;;;4.47;3.83;;;22.40;99.90;;;;;;5114098;28;20532;-82
2021/08/10 06:33:13;;;;;;;8.00;4.83;;;22.70;99.90;;;;;;5123492;27;20532;-81
2021/08/10 06:35:39;;;;;;;6.53;3.50;;;22.90;99.90;;;;;;5113342;28;20861;-81
2021/08/10 06:38:07;;;;;;;3.63;3.40;;;23.10;99.90;;;;;;5112992;28;20532;-83
2021/08/10 06:40:33;;;;;;;4.30;3.93;;;23.40;99.90;;;;;;5114061;28;20533;-82
2021/08/10 06:43:00;;;;;;;4.13;3.53;;;23.60;99.90;;;;;;5114147;28;20469;-81
2021/08/10 06:45:26;;;;;;;4.13;3.60;;;23.90;99.90;;;;;;5114073;28;20477;-81
2021/08/10 06:47:53;;;;;;;3.30;3.00;;;24.00;99.90;;;;;;5113720;28;20528;-80
2021/08/10 06:50:20;;;;;;;2.60;2.37;;;23.80;99.90;;;;;;5113844;28;20469;-75
2021/08/10 06:52:47;;;;;;;3.37;2.90;;;23.80;99.90;;;;;;5105192;28;20529;-75
2021/08/10 06:55:15;;;;;;;3.40;3.10;;;23.80;99.90;;;;;;5112943;28;20499;-75
2021/08/10 06:57:43;;;;;;;7.23;3.40;;;23.90;99.90;;;;;;5113177;28;20453;-77
2021/08/10 07:00:10;;;;;;;5.30;3.50;;;23.90;99.90;;;;;;5113047;28;20959;-77
2021/08/10 07:02:36;;;;;;;2.67;2.53;;;23.90;99.90;;;;;;5113209;28;20481;-77
2021/08/10 07:05:04;;;;;;;2.80;2.60;;;23.90;99.90;;;;;;5113190;28;20498;-79
2021/08/10 07:07:30;;;;;;;3.30;2.30;;;24.00;99.90;;;;;;5112798;28;20501;-75
2021/08/10 07:09:57;;;;;;;4.03;2.60;;;24.10;99.90;;;;;;5112142;28;20532;-76
2021/08/10 07:12:24;;;;;;;2.80;2.57;;;24.40;99.90;;;;;;5108235;28;20497;-78
2021/08/10 07:14:51;;;;;;;4.60;4.20;;;24.70;99.90;;;;;;5111516;28;21024;-78
2021/08/10 07:17:17;;;;;;;3.17;2.97;;;24.90;99.90;;;;;;5110662;28;20533;-76
2021/08/10 07:19:44;;;;;;;3.33;2.73;;;25.20;99.90;;;;;;5112294;28;20548;-75
2021/08/10 07:22:11;;;;;;;2.67;2.47;;;25.50;99.90;;;;;;5112858;28;20536;-78
2021/08/10 07:24:37;;;;;;;5.10;2.50;;;25.70;99.90;;;;;;5112212;28;20532;-76
2021/08/10 07:27:04;;;;;;;6.70;2.70;;;25.90;99.90;;;;;;5113145;28;20481;-76
2021/08/10 07:29:33;;;;;;;2.37;2.10;;;25.80;99.90;;;;;;5112582;28;20442;-76
2021/08/10 07:31:59;;;;;;;3.33;2.40;;;25.70;99.90;;;;;;5112817;28;20480;-76
2021/08/10 07:34:26;;;;;;;1.70;1.60;;;25.50;99.90;;;;;;5112465;28;20553;-76
2021/08/10 07:36:53;;;;;;;2.10;2.00;;;25.30;99.90;;;;;;5112782;28;20474;-76
2021/08/10 07:39:19;;;;;;;2.93;2.07;;;25.10;99.90;;;;;;5112780;28;20537;-76
2021/08/10 07:41:46;;;;;;;5.50;2.13;;;25.00;99.90;;;;;;5110950;28;20552;-75
2021/08/10 07:44:12;;;;;;;4.60;2.07;;;24.90;99.90;;;;;;5111256;28;20449;-76
2021/08/10 07:46:40;;;;;;;3.23;2.37;;;24.90;99.90;;;;;;5111374;28;20990;-75
2021/08/10 07:49:07;;;;;;;2.17;1.97;;;24.80;99.90;;;;;;5111690;28;20528;-75
2021/08/10 07:51:33;;;;;;;2.20;2.00;;;24.80;99.90;;;;;;5116196;28;20516;-76
2021/08/10 07:54:00;;;;;;;2.70;2.50;;;24.80;99.90;;;;;;5116794;28;20476;-75
2021/08/10 07:56:27;;;;;;;2.23;2.03;;;24.90;99.90;;;;;;5116774;28;20528;-75
2021/08/10 07:58:53;;;;;;;2.13;1.90;;;24.90;99.90;;;;;;5116999;28;20883;-75
2021/08/10 08:01:20;;;;;;;2.80;1.93;;;24.90;99.90;;;;;;5116999;28;20536;-76
2021/08/10 08:03:48;;;;;;;4.60;2.00;;;24.80;99.90;;;;;;5117086;28;20556;-75
2021/08/10 08:06:14;;;;;;;2.30;2.10;;;24.90;99.90;;;;;;5116822;28;20495;-76
2021/08/10 08:08:41;;;;;;;2.60;2.40;;;24.90;99.90;;;;;;5116638;28;20515;-75
2021/08/10 08:11:08;;;;;;;2.60;2.40;;;24.90;99.90;;;;;;5111258;28;20486;-75
2021/08/10 08:13:34;;;;;;;2.50;2.30;;;24.90;99.90;;;;;;5114583;28;20524;-76
2021/08/10 08:16:01;;;;;;;2.93;2.73;;;24.90;99.90;;;;;;5114958;27;20554;-76
2021/08/10 08:18:27;;;;;;;2.20;2.00;;;24.90;99.90;;;;;;5115206;28;20544;-76
2021/08/10 08:20:55;;;;;;;3.40;2.53;;;24.90;99.90;;;;;;5115787;27;20465;-75
2021/08/10 08:23:25;;;;;;;3.77;2.37;;;24.80;99.90;;;;;;5116122;28;20441;-76
2021/08/10 08:25:52;;;;;;;3.43;2.70;;;24.60;99.90;;;;;;5115969;28;20527;-75
2021/08/10 08:28:19;;;;;;;3.57;2.30;;;24.50;99.90;;;;;;5116123;28;20949;-76
2021/08/10 08:30:45;;;;;;;2.57;2.37;;;24.20;99.90;;;;;;5115861;28;20525;-76
2021/08/10 08:33:12;;;;;;;3.00;2.27;;;24.10;99.90;;;;;;5115716;28;20528;-76
2021/08/10 08:35:40;;;;;;;3.00;2.43;;;23.90;99.90;;;;;;5115927;28;20581;-76
2021/08/10 08:38:08;;;;;;;2.60;2.40;;;23.80;99.90;;;;;;5115847;28;20480;-76
2021/08/10 08:40:37;;;;;;;4.53;2.93;;;23.70;99.90;;;;;;5115872;28;20497;-76
2021/08/10 08:43:04;;;;;;;2.37;2.27;;;23.70;99.90;;;;;;5115685;28;20477;-76
2021/08/10 08:45:31;;;;;;;3.30;3.00;;;23.70;99.90;;;;;;5115621;27;20442;-76
2021/08/10 08:48:01;;;;;;;2.43;2.33;;;23.90;99.90;;;;;;5100642;28;20538;-76
2021/08/10 08:50:30;;;;;;;4.60;2.40;;;24.00;99.90;;;;;;5115747;28;20456;-76
2021/08/10 08:52:58;;;;;;;2.90;2.50;;;24.20;99.90;;;;;;5115723;28;20473;-77
2021/08/10 08:55:26;;;;;;;3.30;2.30;;;24.40;99.90;;;;;;5115381;28;20563;-79
2021/08/10 08:57:52;;;;;;;2.53;2.33;;;24.50;99.90;;;;;;5115329;28;20528;-76
2021/08/10 09:00:19;;;;;;;4.23;2.43;;;24.70;99.90;;;;;;5113554;28;20553;-76
2021/08/10 09:02:46;;;;;;;3.17;2.10;;;24.90;99.90;;;;;;5114872;28;20442;-76
2021/08/10 09:05:13;;;;;;;5.77;2.30;;;25.00;99.90;;;;;;5115385;28;20469;-76
2021/08/10 09:07:40;;;;;;;3.20;2.50;;;25.10;99.90;;;;;;5115001;28;20552;-76
2021/08/10 09:10:09;;;;;;;2.47;2.20;;;25.30;99.90;;;;;;5115299;28;20474;-76
2021/08/10 09:12:45;;;;;;;3.80;2.03;;;25.40;99.90;;;;;;5115057;28;20971;-76
2021/08/10 09:15:13;;;;;;;3.97;2.60;;;25.50;99.90;;;;;;5115398;28;20465;-76
2021/08/10 09:17:47;;;;;;;2.97;2.13;;;25.50;99.90;;;;;;5115325;28;20534;-76
2021/08/10 09:20:20;;;;;;;5.43;2.80;;;25.40;99.90;;;;;;5115168;28;20796;-76
2021/08/10 09:22:47;;;;;;;2.17;1.97;;;25.30;99.90;;;;;;5115102;28;20452;-76
2021/08/10 09:25:16;;;;;;;2.60;2.17;;;25.30;99.90;;;;;;5114829;28;20528;-76
2021/08/10 09:27:45;;;;;;;2.37;2.00;;;25.20;99.90;;;;;;5114986;28;20529;-76
2021/08/10 09:30:14;;;;;;;3.57;2.53;;;25.20;99.90;;;;;;5115074;28;20659;-76
2021/08/10 09:33:00;;;;;;;3.17;2.40;;;25.20;99.90;;;;;;5114869;28;20868;-76
2021/08/10 09:35:32;;;;;;;3.17;2.87;;;25.10;99.90;;;;;;5114866;27;20477;-76
2021/08/10 09:38:08;;;;;;;2.77;2.43;;;25.00;99.90;;;;;;5099954;28;20449;-76
2021/08/10 09:40:36;;;;;;;3.20;2.37;;;24.70;99.90;;;;;;5114746;28;20444;-76
2021/08/10 09:43:25;;;;;;;2.17;1.97;;;24.60;99.90;;;;;;5114788;28;20545;-77
2021/08/10 09:46:06;;;;;;;2.33;2.10;;;24.50;99.90;;;;;;5113828;28;20945;-77
2021/08/10 09:48:33;;;;;;;2.90;2.70;;;24.50;99.90;;;;;;5114832;28;20442;-76
2021/08/10 09:51:11;;;;;;;2.53;2.13;;;24.60;99.90;;;;;;5114645;28;20971;-76
2021/08/10 09:53:38;;;;;;;3.00;2.33;;;24.90;99.90;;;;;;5114492;28;20823;-76
2021/08/10 09:56:05;;;;;;;2.27;2.07;;;25.10;99.90;;;;;;5114395;28;20898;-76
2021/08/10 09:58:58;;;;;;;3.37;1.80;;;25.40;99.90;;;;;;5114248;28;20441;-76
2021/08/10 10:01:32;;;;;;;5.17;1.97;;;25.70;99.90;;;;;;5114486;28;20442;-76
2021/08/10 10:04:09;;;;;;;4.23;2.23;;;25.90;99.90;;;;;;5099862;28;20495;-76
2021/08/10 10:06:36;;;;;;;6.00;2.40;;;26.00;99.90;;;;;;5114026;28;20481;-77
2021/08/10 10:09:03;;;;;;;4.10;1.90;;;26.20;99.90;;;;;;5113877;28;20814;-77
2021/08/10 10:11:31;;;;;;;2.33;1.97;;;26.50;99.90;;;;;;5114048;28;20980;-77
2021/08/10 10:14:00;;;;;;;3.30;1.97;;;26.80;99.90;;;;;;5098836;28;20433;-77
2021/08/10 10:16:27;;;;;;;2.40;1.97;;;27.10;99.90;;;;;;5114120;28;20505;-77
2021/08/10 10:18:54;;;;;;;2.43;2.23;;;27.40;99.90;;;;;;5114040;28;20481;-77
2021/08/10 10:21:22;;;;;;;2.90;1.93;;;27.50;99.90;;;;;;5113923;28;20893;-77
2021/08/10 10:23:50;;;;;;;4.20;1.83;;;27.50;99.90;;;;;;5113834;28;20481;-77
2021/08/10 10:26:17;;;;;;;3.50;2.93;;;27.50;99.90;;;;;;5113943;28;20537;-77
2021/08/10 10:28:46;;;;;;;2.33;2.13;;;27.40;99.90;;;;;;5113693;28;20541;-77
2021/08/10 10:31:14;;;;;;;3.17;1.90;;;27.20;99.90;;;;;;5113913;28;20536;-77
2021/08/10 10:33:41;;;;;;;1.77;1.50;;;27.20;99.90;;;;;;5113647;28;20563;-77
2021/08/10 10:36:09;;;;;;;3.63;2.13;;;27.30;99.90;;;;;;5113552;28;20502;-77
2021/08/10 10:38:36;;;;;;;2.90;1.93;;;27.30;99.90;;;;;;5113796;28;20533;-77
2021/08/10 10:41:03;;;;;;;2.37;1.80;;;27.30;99.90;;;;;;5113664;28;20541;-77
2021/08/10 10:43:30;;;;;;;2.43;2.00;;;27.30;99.90;;;;;;5113706;28;20499;-77
2021/08/10 10:45:57;;;;;;;3.70;2.10;;;27.20;99.90;;;;;;5098359;28;20441;-77
2021/08/10 10:48:45;;;;;;;2.13;1.93;;;27.20;99.90;;;;;;5113413;28;20442;-77
2021/08/10 10:51:12;;;;;;;2.50;1.90;;;27.10;99.90;;;;;;5113475;27;20465;-77
2021/08/10 10:53:39;;;;;;;3.30;2.17;;;27.10;99.90;;;;;;5113302;27;20442;-77
2021/08/10 10:56:30;;;;;;;3.57;1.87;;;27.10;99.90;;;;;;5113356;28;20556;-77
2021/08/10 10:59:21;;;;;;;2.53;2.10;;;27.00;99.90;;;;;;5113202;27;20540;-77
2021/08/10 11:01:48;;;;;;;3.17;1.80;;;26.90;99.90;;;;;;5111963;28;20850;-77
2021/08/10 11:04:16;;;;;;;3.80;1.63;;;26.80;99.90;;;;;;5113477;28;20838;-77
2021/08/10 11:06:47;;;;;;;1.80;1.50;;;26.70;99.90;;;;;;5112851;28;20517;-77
2021/08/10 11:09:57;;;;;;;2.17;1.97;;;26.60;99.90;;;;;;5113230;28;21004;-77
2021/08/10 11:12:42;;;;;;;1.73;1.30;;;26.60;99.90;;;;;;5113150;28;20438;-77
2021/08/10 11:15:10;;;;;;;2.60;2.00;;;26.50;99.90;;;;;;5113180;28;20476;-77
2021/08/10 11:17:36;;;;;;;2.40;1.97;;;26.50;99.90;;;;;;5112644;28;20816;-77
2021/08/10 11:20:24;;;;;;;1.93;1.73;;;26.40;99.90;;;;;;5112931;28;20454;-77
2021/08/10 11:22:50;;;;;;;2.57;1.67;;;26.40;99.90;;;;;;5112771;28;21031;-77
2021/08/10 11:25:25;;;;;;;4.70;1.90;;;26.30;99.90;;;;;;5112273;28;20476;-77
2021/08/10 11:27:52;;;;;;;4.13;2.07;;;26.40;99.90;;;;;;5112054;28;20528;-77
2021/08/10 11:30:46;;;;;;;1.73;1.60;;;26.70;99.90;;;;;;5110890;28;20525;-77
2021/08/10 11:33:41;;;;;;;2.37;1.87;;;27.00;99.90;;;;;;5111904;28;20448;-77
2021/08/10 11:36:25;;;;;;;4.17;1.97;;;27.00;99.90;;;;;;5112596;28;20469;-77
2021/08/10 11:39:06;;;;;;;2.20;2.00;;;27.00;99.90;;;;;;5112831;28;20477;-77
2021/08/10 11:41:34;;;;;;;3.27;2.20;;;26.90;99.90;;;;;;5109620;28;20473;-77
2021/08/10 11:44:02;;;;;;;3.30;2.10;;;26.80;99.90;;;;;;5112732;28;20528;-77
2021/08/10 11:46:30;;;;;;;1.90;1.80;;;26.70;99.90;;;;;;5112751;28;20577;-77
2021/08/10 11:48:58;;;;;;;2.43;2.10;;;26.70;99.90;;;;;;5112348;28;20574;-77
2021/08/10 11:51:28;;;;;;;3.73;2.13;;;26.90;99.90;;;;;;5112760;28;20532;-77
2021/08/10 11:53:56;;;;;;;2.70;1.83;;;27.10;99.90;;;;;;5112592;28;20458;-77
2021/08/10 11:56:28;;;;;;;2.40;1.77;;;27.20;99.90;;;;;;5112415;28;20565;-78
2021/08/10 11:58:55;;;;;;;2.33;1.87;;;27.10;99.90;;;;;;5112367;28;20453;-77
2021/08/10 12:01:22;;;;;;;3.23;1.83;;;27.00;99.90;;;;;;5112435;28;20536;-77
2021/08/10 12:03:49;;;;;;;1.70;1.60;;;27.00;99.90;;;;;;5112314;28;20442;-77
2021/08/10 12:06:16;;;;;;;2.10;1.83;;;27.00;99.90;;;;;;5112256;28;20996;-77
2021/08/10 12:08:44;;;;;;;2.23;2.00;;;27.00;99.90;;;;;;5112185;28;20556;-77
2021/08/10 12:11:11;;;;;;;1.60;1.50;;;27.00;99.90;;;;;;5112477;28;20437;-77
2021/08/10 12:13:37;;;;;;;2.80;1.83;;;27.20;99.90;;;;;;5112197;28;20881;-77
2021/08/10 12:16:09;;;;;;;2.50;1.87;;;27.40;99.90;;;;;;5112236;28;20883;-77
2021/08/10 12:18:49;;;;;;;1.97;1.60;;;27.70;99.90;;;;;;5112337;28;20449;-77
2021/08/10 12:21:18;;;;;;;2.07;1.70;;;28.00;99.90;;;;;;5112329;28;20831;-77
2021/08/10 12:23:49;;;;;;;1.70;1.60;;;28.10;99.90;;;;;;5112131;28;20471;-77
2021/08/10 12:26:17;;;;;;;4.13;1.80;;;28.00;99.90;;;;;;5111970;28;20477;-77
2021/08/10 12:28:55;;;;;;;3.60;1.80;;;27.70;99.90;;;;;;5111933;28;20553;-77
2021/08/10 12:31:21;;;;;;;1.80;1.70;;;27.50;99.90;;;;;;5112341;28;20524;-77
2021/08/10 12:33:50;;;;;;;2.30;2.10;;;27.30;99.90;;;;;;5112127;28;20449;-77
2021/08/10 12:36:16;;;;;;;2.97;1.60;;;27.20;99.90;;;;;;5113603;28;20495;-77
2021/08/10 12:38:44;;;;;;;2.20;1.50;;;27.30;99.90;;;;;;5115973;28;20473;-77
2021/08/10 12:41:12;;;;;;;4.17;2.07;;;27.50;99.90;;;;;;5115782;28;20464;-78
2021/08/10 12:43:40;;;;;;;4.03;1.93;;;27.80;99.90;;;;;;5115713;28;20960;-77
2021/08/10 12:46:26;;;;;;;3.97;2.37;;;28.00;99.90;;;;;;5116086;28;20540;-77
2021/08/10 12:49:04;;;;;;;3.10;2.90;;;28.00;99.90;;;;;;5115630;28;20932;-77
2021/08/10 12:51:56;;;;;;;3.23;2.30;;;27.70;99.90;;;;;;5112068;28;20978;-77
2021/08/10 12:54:23;;;;;;;2.33;2.00;;;27.50;99.90;;;;;;5106746;28;20446;-77
2021/08/10 12:56:51;;;;;;;2.20;2.00;;;27.30;99.90;;;;;;5115726;28;20560;-77